Time;durP1;ratioP1;P1;durP2;ratioP2;P2;SDS_P1;SDS_P2;PMS_P1;PMS_P2;Temp;Humidity;BMP_temperature;BMP_pressure;BME280_temperature;BME280_humidity;BME280_pressure;Samples;Min_cycle;Max_cycle;Signal;HPM_P1;HPM_P2
2024/02/16 00:01:17;;;;;;;54.13;11.18;;;12.60;94.30;;;;;;5046947;28;20030;-51
2024/02/16 00:03:43;;;;;;;53.55;11.10;;;12.60;94.30;;;;;;5046967;28;20044;-50
2024/02/16 00:06:08;;;;;;;53.13;12.07;;;12.60;94.30;;;;;;5045891;28;20029;-50
2024/02/16 00:08:34;;;;;;;53.45;10.40;;;12.60;94.40;;;;;;5046956;28;20033;-51
2024/02/16 00:11:00;;;;;;;49.20;9.98;;;12.60;94.50;;;;;;5045458;28;20055;-50
2024/02/16 00:13:26;;;;;;;52.53;10.80;;;12.50;94.40;;;;;;5046954;28;20025;-50
2024/02/16 00:15:51;;;;;;;59.67;11.02;;;12.60;94.50;;;;;;5045785;28;20025;-51
2024/02/16 00:18:17;;;;;;;48.58;10.63;;;12.50;94.50;;;;;;5029459;28;20026;-50
2024/02/16 00:20:43;;;;;;;58.35;11.90;;;12.50;94.50;;;;;;5027719;28;20030;-50
2024/02/16 00:23:09;;;;;;;54.10;10.63;;;12.50;94.60;;;;;;5045242;28;20037;-50
2024/02/16 00:25:34;;;;;;;60.40;11.82;;;12.50;94.60;;;;;;5045358;28;20053;-51
2024/02/16 00:28:00;;;;;;;54.00;10.65;;;12.50;94.60;;;;;;5045362;28;20053;-50
2024/02/16 00:30:27;;;;;;;48.03;10.63;;;12.40;94.60;;;;;;5045775;28;20503;-51
2024/02/16 00:32:52;;;;;;;57.13;11.48;;;12.40;95.00;;;;;;5028645;28;20029;-50
2024/02/16 00:35:19;;;;;;;47.95;10.45;;;12.40;94.70;;;;;;5045328;28;20464;-51
2024/02/16 00:37:45;;;;;;;54.40;10.43;;;12.40;94.70;;;;;;5046433;28;20085;-50
2024/02/16 00:40:11;;;;;;;53.15;10.10;;;12.40;94.70;;;;;;5044320;28;20038;-51
2024/02/16 00:42:37;;;;;;;50.25;10.32;;;12.40;94.70;;;;;;5028356;28;20033;-50
2024/02/16 00:45:06;;;;;;;38.65;8.77;;;12.40;94.70;;;;;;5046178;28;20034;-51
2024/02/16 00:47:31;;;;;;;48.63;10.45;;;12.40;94.70;;;;;;5044863;28;20084;-50
2024/02/16 00:49:58;;;;;;;50.20;10.30;;;12.40;94.80;;;;;;5043971;28;20025;-50
2024/02/16 00:52:23;;;;;;;56.33;10.38;;;12.40;94.70;;;;;;5034581;28;20033;-50
2024/02/16 00:54:49;;;;;;;38.53;9.63;;;12.40;94.80;;;;;;5026545;28;20022;-50
2024/02/16 00:57:15;;;;;;;42.30;9.63;;;12.30;94.80;;;;;;5026631;28;20487;-50
2024/02/16 00:59:41;;;;;;;46.65;9.95;;;12.30;94.80;;;;;;5041738;28;20030;-51
2024/02/16 01:02:06;;;;;;;43.13;9.32;;;12.30;94.90;;;;;;5044015;28;20029;-51
2024/02/16 01:04:33;;;;;;;45.03;9.45;;;12.30;94.90;;;;;;5041896;28;20034;-50
2024/02/16 01:06:58;;;;;;;46.20;10.93;;;12.30;95.00;;;;;;5025172;28;20041;-50
2024/02/16 01:09:24;;;;;;;44.17;9.40;;;12.30;94.90;;;;;;5025318;28;20393;-50
2024/02/16 01:11:50;;;;;;;46.45;9.52;;;12.30;95.00;;;;;;5027461;28;20041;-50
2024/02/16 01:14:15;;;;;;;40.10;9.30;;;12.20;94.90;;;;;;5041423;28;20061;-50
2024/02/16 01:16:41;;;;;;;45.65;9.60;;;12.20;95.00;;;;;;5041408;28;20026;-50
2024/02/16 01:19:07;;;;;;;34.92;8.73;;;12.20;94.90;;;;;;5043065;28;20033;-50
2024/02/16 01:21:33;;;;;;;37.78;8.55;;;12.20;95.00;;;;;;5045378;28;20040;-50
2024/02/16 01:24:00;;;;;;;56.63;10.70;;;12.20;95.30;;;;;;5044825;28;20096;-50
2024/02/16 01:26:27;;;;;;;31.05;8.95;;;12.20;95.00;;;;;;5044801;28;20041;-51
2024/02/16 01:28:52;;;;;;;34.70;8.27;;;12.20;95.10;;;;;;5045438;28;20026;-50
2024/02/16 01:31:18;;;;;;;38.35;8.82;;;12.20;95.10;;;;;;5044214;28;20041;-50
2024/02/16 01:33:43;;;;;;;37.17;8.95;;;12.20;95.10;;;;;;5045706;28;20037;-50
2024/02/16 01:36:09;;;;;;;41.40;9.27;;;12.20;95.10;;;;;;5028261;28;20431;-51
2024/02/16 01:38:34;;;;;;;30.38;8.30;;;12.20;95.30;;;;;;5043873;28;20033;-50
2024/02/16 01:41:01;;;;;;;39.78;8.55;;;12.10;95.00;;;;;;5028463;28;20037;-51
2024/02/16 01:43:27;;;;;;;41.70;8.70;;;12.10;95.00;;;;;;5044734;28;20049;-51
2024/02/16 01:45:53;;;;;;;35.10;8.45;;;12.10;95.10;;;;;;5028307;28;20029;-51
2024/02/16 01:48:18;;;;;;;29.65;7.85;;;12.10;95.10;;;;;;5044625;28;20037;-50
2024/02/16 01:50:44;;;;;;;35.65;8.05;;;12.10;95.20;;;;;;5044519;28;20026;-50
2024/02/16 01:53:11;;;;;;;46.97;8.63;;;12.00;95.20;;;;;;5044547;28;20034;-50
2024/02/16 01:55:37;;;;;;;33.55;8.52;;;12.00;95.20;;;;;;5046634;28;20029;-50
2024/02/16 01:58:02;;;;;;;39.60;9.32;;;12.10;95.30;;;;;;5047219;28;20018;-50
2024/02/16 02:00:28;;;;;;;33.42;8.43;;;12.00;95.30;;;;;;5032106;28;20037;-50
2024/02/16 02:02:54;;;;;;;38.78;8.68;;;12.00;95.30;;;;;;5049758;28;20029;-50
2024/02/16 02:05:19;;;;;;;32.65;8.35;;;12.00;95.30;;;;;;5047691;28;20052;-50
2024/02/16 02:07:45;;;;;;;35.85;8.98;;;12.00;95.30;;;;;;5030231;28;20029;-50
2024/02/16 02:10:12;;;;;;;35.90;8.90;;;12.00;95.30;;;;;;5047800;28;20034;-51
2024/02/16 02:12:39;;;;;;;30.20;7.70;;;12.00;95.30;;;;;;5047936;28;20030;-51
2024/02/16 02:15:05;;;;;;;30.95;7.93;;;12.00;95.30;;;;;;5047842;28;20050;-50
2024/02/16 02:17:38;;;;;;;27.33;7.90;;;12.00;95.30;;;;;;5047893;28;20049;-50
2024/02/16 02:20:07;;;;;;;30.23;7.70;;;11.90;95.30;;;;;;5047786;28;20060;-50
2024/02/16 02:22:33;;;;;;;34.22;7.90;;;11.90;95.40;;;;;;5048695;28;20032;-50
2024/02/16 02:24:59;;;;;;;33.30;7.30;;;11.90;95.50;;;;;;5047619;28;20408;-50
2024/02/16 02:27:25;;;;;;;29.55;7.82;;;11.90;95.50;;;;;;5047943;28;20112;-50
2024/02/16 02:29:51;;;;;;;30.48;8.30;;;11.90;95.50;;;;;;5031140;28;20025;-50
2024/02/16 02:32:16;;;;;;;41.03;7.72;;;11.90;95.50;;;;;;5030800;28;20502;-50
2024/02/16 02:34:43;;;;;;;26.13;7.32;;;11.90;95.80;;;;;;5048601;28;20032;-50
2024/02/16 02:37:08;;;;;;;26.95;7.45;;;11.90;95.50;;;;;;5042283;28;20029;-50
2024/02/16 02:39:34;;;;;;;29.60;7.28;;;11.80;95.50;;;;;;5027607;28;20026;-51
2024/02/16 02:42:00;;;;;;;26.00;7.28;;;11.80;95.50;;;;;;5027398;28;20025;-50
2024/02/16 02:44:25;;;;;;;31.52;7.07;;;11.80;95.50;;;;;;5027425;28;20440;-50
2024/02/16 02:46:51;;;;;;;28.90;7.05;;;11.80;95.50;;;;;;5044737;28;20108;-50
2024/02/16 02:49:17;;;;;;;20.65;6.65;;;11.80;95.50;;;;;;5048340;28;20022;-51
2024/02/16 02:51:43;;;;;;;27.02;7.72;;;11.80;95.50;;;;;;5046936;28;20033;-51
2024/02/16 02:54:08;;;;;;;28.95;7.55;;;11.80;95.60;;;;;;5047803;28;20029;-50
2024/02/16 02:56:34;;;;;;;23.23;7.03;;;11.80;95.60;;;;;;5047371;28;20030;-51
2024/02/16 02:59:00;;;;;;;27.15;7.60;;;11.70;95.60;;;;;;5047971;28;20052;-50
2024/02/16 03:01:25;;;;;;;29.08;7.57;;;11.70;95.60;;;;;;5047124;28;20033;-50
2024/02/16 03:03:51;;;;;;;23.67;6.63;;;11.70;95.70;;;;;;5046292;28;20435;-50
2024/02/16 03:06:20;;;;;;;23.67;6.70;;;11.70;95.70;;;;;;5028402;28;20034;-51
2024/02/16 03:08:45;;;;;;;23.95;7.05;;;11.70;95.70;;;;;;5046832;28;20034;-50
2024/02/16 03:11:11;;;;;;;28.50;6.85;;;11.70;95.70;;;;;;5047787;28;20040;-51
2024/02/16 03:13:37;;;;;;;25.27;6.40;;;11.70;95.70;;;;;;5046322;28;20089;-50
2024/02/16 03:16:03;;;;;;;27.50;6.32;;;11.70;95.80;;;;;;5029940;28;20075;-50
2024/02/16 03:18:32;;;;;;;22.27;6.20;;;11.70;95.70;;;;;;5046547;28;20113;-50
2024/02/16 03:20:58;;;;;;;26.20;7.40;;;11.70;95.80;;;;;;5030283;28;20058;-51
2024/02/16 03:23:23;;;;;;;24.58;6.53;;;11.70;95.80;;;;;;5047055;28;20025;-50
2024/02/16 03:25:49;;;;;;;15.18;6.00;;;11.60;95.80;;;;;;5047763;28;20041;-50
2024/02/16 03:28:15;;;;;;;16.90;6.68;;;11.60;95.80;;;;;;5046364;28;20087;-51
2024/02/16 03:30:41;;;;;;;31.02;6.60;;;11.60;95.90;;;;;;5029914;28;20033;-50
2024/02/16 03:33:06;;;;;;;27.10;7.15;;;11.60;95.90;;;;;;5025502;28;20033;-50
2024/02/16 03:35:32;;;;;;;21.25;6.82;;;11.60;95.80;;;;;;5026571;28;20026;-50
2024/02/16 03:37:58;;;;;;;19.80;6.40;;;11.60;95.80;;;;;;5026264;28;20109;-50
2024/02/16 03:40:24;;;;;;;22.30;6.15;;;11.60;95.90;;;;;;5026434;28;20034;-51
2024/02/16 03:42:50;;;;;;;21.88;5.78;;;11.60;95.90;;;;;;5041118;28;20076;-50
2024/02/16 03:45:16;;;;;;;22.00;6.35;;;11.50;95.90;;;;;;5046363;28;20080;-50
2024/02/16 03:47:42;;;;;;;21.52;5.88;;;11.60;96.00;;;;;;5046172;28;20033;-50
2024/02/16 03:50:08;;;;;;;20.50;6.60;;;11.50;96.00;;;;;;5029423;28;20060;-50
2024/02/16 03:52:33;;;;;;;17.83;5.65;;;11.60;96.00;;;;;;5045007;28;20025;-50
2024/02/16 03:54:59;;;;;;;22.52;5.78;;;11.50;95.90;;;;;;5045695;28;20028;-50
2024/02/16 03:57:25;;;;;;;18.98;6.18;;;11.50;96.00;;;;;;5044656;28;20040;-50
2024/02/16 03:59:50;;;;;;;17.85;5.85;;;11.50;96.00;;;;;;5029006;28;20479;-50
2024/02/16 04:02:17;;;;;;;20.95;5.45;;;11.50;96.00;;;;;;5045553;28;20029;-50
2024/02/16 04:04:42;;;;;;;18.90;6.00;;;11.50;96.00;;;;;;5012641;28;20030;-50
2024/02/16 04:07:08;;;;;;;18.58;6.15;;;11.50;96.00;;;;;;5039550;28;20599;-50
2024/02/16 04:09:34;;;;;;;16.05;5.50;;;11.50;96.00;;;;;;5034740;28;20032;-50
2024/02/16 04:12:03;;;;;;;23.25;6.03;;;11.50;96.10;;;;;;5028794;28;20033;-50
2024/02/16 04:14:30;;;;;;;16.58;5.43;;;11.40;96.10;;;;;;5046118;28;20045;-50
2024/02/16 04:16:58;;;;;;;16.45;5.35;;;11.40;96.10;;;;;;5025291;28;20080;-50
2024/02/16 04:19:25;;;;;;;21.45;5.93;;;11.40;96.10;;;;;;5025333;28;20026;-50
2024/02/16 04:21:50;;;;;;;20.77;5.60;;;11.40;96.10;;;;;;5020573;28;20156;-50
2024/02/16 04:24:16;;;;;;;17.05;5.88;;;11.40;96.10;;;;;;5030107;28;20512;-50
2024/02/16 04:26:42;;;;;;;17.48;5.55;;;11.40;96.20;;;;;;5025173;28;20052;-50
2024/02/16 04:29:08;;;;;;;22.15;6.22;;;11.40;96.20;;;;;;5031016;28;20028;-50
2024/02/16 04:31:33;;;;;;;17.55;5.90;;;11.40;96.20;;;;;;5035577;28;20050;-51
2024/02/16 04:33:59;;;;;;;15.68;6.38;;;11.40;96.20;;;;;;5021434;28;20059;-50
2024/02/16 04:36:25;;;;;;;12.23;5.15;;;11.40;96.20;;;;;;5028955;28;20090;-50
2024/02/16 04:38:50;;;;;;;14.38;5.05;;;11.40;96.10;;;;;;5041528;28;20061;-50
2024/02/16 04:41:16;;;;;;;18.30;5.65;;;11.40;96.20;;;;;;5031795;28;20028;-50
2024/02/16 04:43:41;;;;;;;15.98;5.38;;;11.40;96.20;;;;;;5034568;28;20049;-50
2024/02/16 04:46:12;;;;;;;22.92;5.13;;;11.30;96.20;;;;;;5038803;28;20025;-50
2024/02/16 04:48:37;;;;;;;17.60;5.43;;;11.30;96.20;;;;;;5026458;28;20030;-50
2024/02/16 04:51:03;;;;;;;17.42;5.60;;;11.30;96.20;;;;;;5044809;28;20032;-50
2024/02/16 04:53:29;;;;;;;14.32;5.32;;;11.30;96.30;;;;;;5037378;28;20499;-50
2024/02/16 04:55:55;;;;;;;13.35;5.00;;;11.30;96.30;;;;;;5038261;28;20044;-50
2024/02/16 04:58:22;;;;;;;11.02;5.07;;;11.30;96.40;;;;;;5029113;28;20022;-50
2024/02/16 05:00:47;;;;;;;17.15;5.47;;;11.30;96.40;;;;;;5041233;28;20033;-50
2024/02/16 05:03:13;;;;;;;18.77;5.25;;;11.30;96.30;;;;;;5032531;28;20030;-50
2024/02/16 05:05:38;;;;;;;16.13;5.30;;;11.30;96.30;;;;;;5034591;28;20041;-50
2024/02/16 05:08:05;;;;;;;19.83;4.97;;;11.30;96.30;;;;;;5038374;28;20022;-50
2024/02/16 05:10:31;;;;;;;14.88;5.22;;;11.30;96.30;;;;;;5030309;28;20038;-51
2024/02/16 05:12:58;;;;;;;17.02;4.88;;;11.20;96.40;;;;;;5041850;28;20018;-50
2024/02/16 05:15:23;;;;;;;15.30;5.15;;;11.20;96.40;;;;;;5008863;28;20034;-50
2024/02/16 05:17:49;;;;;;;15.80;4.80;;;11.30;96.40;;;;;;5019514;28;20032;-50
2024/02/16 05:20:15;;;;;;;14.77;4.60;;;11.20;96.40;;;;;;5029931;28;20122;-50
2024/02/16 05:22:46;;;;;;;14.38;4.65;;;11.30;96.40;;;;;;5042185;28;20021;-50
2024/02/16 05:25:13;;;;;;;16.52;4.38;;;11.30;96.40;;;;;;5030956;28;20026;-50
2024/02/16 05:27:39;;;;;;;11.63;5.05;;;11.20;96.30;;;;;;5034372;28;20033;-50
2024/02/16 05:30:07;;;;;;;11.18;4.72;;;11.30;96.30;;;;;;5033590;28;20050;-50
2024/02/16 05:32:37;;;;;;;14.00;5.20;;;11.20;96.40;;;;;;5044115;28;20048;-51
2024/02/16 05:35:14;;;;;;;17.15;4.82;;;11.20;96.40;;;;;;5034603;28;20021;-50
2024/02/16 05:37:44;;;;;;;13.38;4.88;;;11.20;96.40;;;;;;5022917;28;20476;-50
2024/02/16 05:40:21;;;;;;;13.88;4.88;;;11.30;96.40;;;;;;5042243;28;20026;-50
2024/02/16 05:42:47;;;;;;;16.05;5.18;;;11.30;96.30;;;;;;5045133;28;20045;-51
2024/02/16 05:45:14;;;;;;;19.35;4.70;;;11.30;96.40;;;;;;5034525;28;20026;-51
2024/02/16 05:47:39;;;;;;;15.93;4.53;;;11.30;96.40;;;;;;5049137;28;20034;-51
2024/02/16 05:50:06;;;;;;;21.27;4.85;;;11.20;96.40;;;;;;5049344;28;20364;-50
2024/02/16 05:52:32;;;;;;;19.55;5.18;;;11.30;96.40;;;;;;5048483;28;20036;-50
2024/02/16 05:54:57;;;;;;;17.08;4.68;;;11.20;96.40;;;;;;5032530;28;20026;-50
2024/02/16 05:57:24;;;;;;;27.08;5.40;;;11.20;96.50;;;;;;5040118;28;20025;-50
2024/02/16 05:59:49;;;;;;;21.63;5.93;;;11.20;96.50;;;;;;5039223;28;20033;-50
2024/02/16 06:02:15;;;;;;;19.02;5.10;;;11.20;96.50;;;;;;5032228;28;20041;-50
2024/02/16 06:04:41;;;;;;;29.63;6.72;;;11.20;96.50;;;;;;5043910;28;20030;-50
2024/02/16 06:07:07;;;;;;;32.70;6.35;;;11.20;96.50;;;;;;5033292;28;20052;-50
2024/02/16 06:09:37;;;;;;;31.70;5.70;;;11.20;96.60;;;;;;5021884;28;20025;-50
2024/02/16 06:12:06;;;;;;;28.48;6.32;;;11.20;96.60;;;;;;5040804;28;20472;-51
2024/02/16 06:14:33;;;;;;;31.17;6.70;;;11.20;96.60;;;;;;5031017;28;20048;-50
2024/02/16 06:16:59;;;;;;;27.30;6.45;;;11.20;96.60;;;;;;5043139;28;20030;-50
2024/02/16 06:19:25;;;;;;;24.70;5.90;;;11.20;96.90;;;;;;5036649;28;20014;-50
2024/02/16 06:21:50;;;;;;;21.90;6.03;;;11.20;96.60;;;;;;5018944;28;20030;-50
2024/02/16 06:24:16;;;;;;;35.80;7.47;;;11.20;96.60;;;;;;5042359;28;20029;-50
2024/02/16 06:26:43;;;;;;;20.70;6.50;;;11.20;96.70;;;;;;5030576;28;20468;-50
2024/02/16 06:29:08;;;;;;;36.58;7.30;;;11.20;96.70;;;;;;5041286;28;20025;-50
2024/02/16 06:31:34;;;;;;;29.50;6.50;;;11.20;96.80;;;;;;5036141;28;20029;-50
2024/02/16 06:33:59;;;;;;;31.85;7.03;;;11.20;96.80;;;;;;5030377;28;20220;-50
2024/02/16 06:36:25;;;;;;;22.77;6.82;;;11.20;96.80;;;;;;5046725;28;20326;-50
2024/02/16 06:38:51;;;;;;;38.30;7.00;;;11.20;96.90;;;;;;5030348;28;20076;-50
2024/02/16 06:41:17;;;;;;;30.02;7.53;;;11.20;96.80;;;;;;5039577;28;20017;-50
2024/02/16 06:43:43;;;;;;;35.13;6.88;;;11.20;96.90;;;;;;5036247;28;20036;-50
2024/02/16 06:46:08;;;;;;;36.33;7.65;;;11.20;97.10;;;;;;5040203;28;20029;-50
2024/02/16 06:48:34;;;;;;;32.35;6.82;;;11.20;97.20;;;;;;5026926;28;20085;-50
2024/02/16 06:51:00;;;;;;;46.42;8.90;;;11.20;97.30;;;;;;5045483;28;20029;-50
2024/02/16 06:53:25;;;;;;;57.90;8.23;;;11.20;97.30;;;;;;5037421;28;20052;-50
2024/02/16 06:55:51;;;;;;;40.70;8.07;;;11.20;97.40;;;;;;5021366;28;20038;-50
2024/02/16 06:58:17;;;;;;;39.42;8.40;;;11.20;97.50;;;;;;5032801;28;20030;-50
2024/02/16 07:00:42;;;;;;;43.42;10.25;;;11.20;97.50;;;;;;5042991;28;20037;-50
2024/02/16 07:03:08;;;;;;;42.60;7.93;;;11.20;97.30;;;;;;5033536;28;20100;-50
2024/02/16 07:05:35;;;;;;;27.42;7.50;;;11.20;97.30;;;;;;5037015;28;20447;-50
2024/02/16 07:08:00;;;;;;;36.67;8.63;;;11.20;97.30;;;;;;5023085;28;20086;-50
2024/02/16 07:10:26;;;;;;;42.13;8.52;;;11.20;97.30;;;;;;5030163;28;20085;-50
2024/02/16 07:12:51;;;;;;;43.90;8.15;;;11.20;97.40;;;;;;5025951;28;20034;-50
2024/02/16 07:15:17;;;;;;;35.38;7.88;;;11.20;97.40;;;;;;5041705;28;20021;-50
2024/02/16 07:17:43;;;;;;;48.33;9.30;;;11.20;97.40;;;;;;5038150;28;20095;-50
2024/02/16 07:20:09;;;;;;;42.88;8.55;;;11.20;97.40;;;;;;5032718;28;20040;-50
2024/02/16 07:22:35;;;;;;;35.35;7.75;;;11.20;97.40;;;;;;5044685;28;20026;-50
2024/02/16 07:25:00;;;;;;;38.10;8.65;;;11.20;97.50;;;;;;5042131;28;20025;-50
2024/02/16 07:27:26;;;;;;;28.88;8.25;;;11.20;97.60;;;;;;5029322;28;20037;-50
2024/02/16 07:29:52;;;;;;;51.05;9.00;;;11.20;97.60;;;;;;5045935;28;20056;-50
2024/02/16 07:32:17;;;;;;;46.65;8.57;;;11.20;97.60;;;;;;5041224;28;20026;-51
2024/02/16 07:34:51;;;;;;;29.65;7.85;;;11.20;97.60;;;;;;5040640;28;20069;-50
2024/02/16 07:37:16;;;;;;;30.15;7.45;;;11.20;97.50;;;;;;5045712;28;20029;-50
2024/02/16 07:39:42;;;;;;;39.63;7.97;;;11.20;97.50;;;;;;5028844;28;20026;-50
2024/02/16 07:42:09;;;;;;;39.70;8.50;;;11.20;97.50;;;;;;5037966;28;20026;-50
2024/02/16 07:44:38;;;;;;;43.50;7.57;;;11.20;97.60;;;;;;5045165;28;20025;-50
2024/02/16 07:47:04;;;;;;;40.03;8.55;;;11.20;97.50;;;;;;5064545;28;20028;-50
2024/02/16 07:49:29;;;;;;;49.17;10.77;;;11.20;97.50;;;;;;5056167;28;20463;-50
2024/02/16 07:51:55;;;;;;;58.22;10.20;;;11.20;97.50;;;;;;5042454;28;20033;-50
2024/02/16 07:54:21;;;;;;;38.83;8.30;;;11.20;97.50;;;;;;5029929;28;20119;-50
2024/02/16 07:56:46;;;;;;;45.65;8.90;;;11.20;97.50;;;;;;5044858;28;20044;-50
2024/02/16 07:59:18;;;;;;;40.97;8.32;;;11.20;97.60;;;;;;5050142;28;20047;-50
2024/02/16 08:01:50;;;;;;;32.55;7.80;;;11.30;97.70;;;;;;5042329;28;20029;-50
2024/02/16 08:04:19;;;;;;;47.95;8.20;;;11.30;97.50;;;;;;5044636;28;20036;-50
2024/02/16 08:07:01;;;;;;;38.72;7.60;;;11.30;97.40;;;;;;5043905;28;20080;-51
2024/02/16 08:09:29;;;;;;;49.60;8.35;;;11.30;97.40;;;;;;5037379;28;20063;-50
2024/02/16 08:12:06;;;;;;;50.97;8.55;;;11.30;97.40;;;;;;5043089;28;20033;-50
2024/02/16 08:14:37;;;;;;;47.15;8.70;;;11.30;97.30;;;;;;5037285;28;20029;-50
2024/02/16 08:17:06;;;;;;;43.22;9.57;;;11.30;97.30;;;;;;5042562;28;20055;-50
2024/02/16 08:19:36;;;;;;;40.13;8.25;;;11.30;97.30;;;;;;5043110;28;20052;-50
2024/02/16 08:22:09;;;;;;;33.83;8.55;;;11.30;97.30;;;;;;5025817;28;20030;-50
2024/02/16 08:24:35;;;;;;;45.40;9.13;;;11.30;97.30;;;;;;5026679;28;20064;-50
2024/02/16 08:27:01;;;;;;;40.40;7.65;;;11.30;97.30;;;;;;5034857;28;20036;-51
2024/02/16 08:29:26;;;;;;;45.42;8.80;;;11.30;97.30;;;;;;5028611;28;20060;-51
2024/02/16 08:31:53;;;;;;;28.40;7.53;;;11.40;97.20;;;;;;5039389;28;20029;-51
2024/02/16 08:34:19;;;;;;;40.92;7.82;;;11.30;97.20;;;;;;5040885;28;20039;-50
2024/02/16 08:36:45;;;;;;;44.38;8.38;;;11.40;97.20;;;;;;5042950;28;20037;-50
2024/02/16 08:39:12;;;;;;;47.53;8.55;;;11.40;97.20;;;;;;5042309;28;20026;-50
2024/02/16 08:41:38;;;;;;;34.45;7.90;;;11.40;97.20;;;;;;5047085;28;20064;-50
2024/02/16 08:44:04;;;;;;;46.80;8.98;;;11.40;97.10;;;;;;5038971;28;20026;-50
2024/02/16 08:46:30;;;;;;;41.22;9.55;;;11.40;97.10;;;;;;5041364;28;20528;-50
2024/02/16 08:48:56;;;;;;;37.45;7.95;;;11.40;97.10;;;;;;5035380;28;20042;-50
2024/02/16 08:51:21;;;;;;;29.90;7.63;;;11.50;97.10;;;;;;5009224;28;20025;-50
2024/02/16 08:53:47;;;;;;;43.95;10.00;;;11.50;97.10;;;;;;5042961;28;20029;-50
2024/02/16 08:56:12;;;;;;;52.25;9.82;;;11.50;97.10;;;;;;5036629;28;20025;-50
2024/02/16 08:58:38;;;;;;;77.28;12.35;;;11.50;97.10;;;;;;5045216;28;20037;-50
2024/02/16 09:01:05;;;;;;;44.17;9.60;;;11.50;97.10;;;;;;5027481;28;20026;-50
2024/02/16 09:03:36;;;;;;;46.17;8.57;;;11.50;97.10;;;;;;5010121;28;20107;-50
2024/02/16 09:06:02;;;;;;;43.00;9.20;;;11.50;97.00;;;;;;5030966;28;20030;-50
2024/02/16 09:08:32;;;;;;;31.52;8.25;;;11.60;97.10;;;;;;5028768;28;20029;-50
2024/02/16 09:10:59;;;;;;;45.80;8.15;;;11.60;97.00;;;;;;5042048;28;20033;-50
2024/02/16 09:13:38;;;;;;;46.92;9.13;;;11.70;97.00;;;;;;5029082;28;20022;-50
2024/02/16 09:16:07;;;;;;;55.95;9.73;;;11.60;97.00;;;;;;5044398;28;20025;-50
2024/02/16 09:18:33;;;;;;;73.20;10.40;;;11.70;97.00;;;;;;5038047;28;20022;-50
2024/02/16 09:21:10;;;;;;;62.47;10.70;;;11.70;97.10;;;;;;5042578;28;20180;-50
2024/02/16 09:23:39;;;;;;;53.38;11.52;;;11.70;97.00;;;;;;5029333;28;20045;-50
2024/02/16 09:26:04;;;;;;;58.33;8.88;;;11.70;97.30;;;;;;5046400;28;20039;-50
2024/02/16 09:28:30;;;;;;;54.50;8.95;;;11.80;97.00;;;;;;5048052;28;20025;-51
2024/02/16 09:31:08;;;;;;;33.35;8.20;;;11.80;96.90;;;;;;5025804;28;20044;-50
2024/02/16 09:33:46;;;;;;;45.75;9.50;;;11.80;96.90;;;;;;5042458;28;20029;-50
2024/02/16 09:36:14;;;;;;;56.03;9.93;;;11.80;96.90;;;;;;5033420;28;20025;-50
2024/02/16 09:38:40;;;;;;;55.55;9.60;;;11.90;96.90;;;;;;5046606;28;20030;-51
2024/02/16 09:41:05;;;;;;;54.78;9.73;;;11.90;96.70;;;;;;5044546;28;20032;-50
2024/02/16 09:43:34;;;;;;;64.05;10.18;;;11.90;96.80;;;;;;5042698;28;20021;-51
2024/02/16 09:46:03;;;;;;;74.53;12.07;;;12.00;96.80;;;;;;5040682;28;20037;-50
2024/02/16 09:48:28;;;;;;;79.20;13.65;;;12.00;96.60;;;;;;5021909;28;20022;-50
2024/02/16 09:51:00;;;;;;;78.80;13.27;;;12.00;96.80;;;;;;5046953;28;20061;-50
2024/02/16 09:53:28;;;;;;;79.75;12.20;;;12.00;96.70;;;;;;5048556;28;20021;-51
2024/02/16 09:55:56;;;;;;;95.40;13.02;;;12.00;96.80;;;;;;5045063;28;20088;-51
2024/02/16 09:58:22;;;;;;;79.10;12.90;;;12.10;96.80;;;;;;5046198;28;20025;-51
2024/02/16 10:00:51;;;;;;;66.88;11.55;;;12.10;96.70;;;;;;5013678;28;20067;-50
2024/02/16 10:03:23;;;;;;;82.28;13.40;;;12.10;96.80;;;;;;5037598;28;20026;-50
2024/02/16 10:05:49;;;;;;;81.22;14.48;;;12.20;96.90;;;;;;5046613;28;20484;-50
2024/02/16 10:08:15;;;;;;;317.13;37.53;;;12.20;96.90;;;;;;5041693;28;20033;-50
2024/02/16 10:10:41;;;;;;;162.50;20.88;;;12.20;96.90;;;;;;5042358;28;20038;-50
2024/02/16 10:13:08;;;;;;;160.80;20.02;;;12.30;97.00;;;;;;5045852;28;20492;-50
2024/02/16 10:15:34;;;;;;;149.05;22.23;;;12.30;96.90;;;;;;5011453;28;20030;-50
2024/02/16 10:18:00;;;;;;;299.05;34.05;;;12.30;96.90;;;;;;5043837;28;20049;-51
2024/02/16 10:20:25;;;;;;;154.40;22.33;;;12.40;96.90;;;;;;5045799;28;20041;-51
2024/02/16 10:23:11;;;;;;;152.35;19.13;;;12.40;96.90;;;;;;5045838;28;20030;-50
2024/02/16 10:25:42;;;;;;;;;;;12.40;96.90;;;;;;5046767;28;20033;-50
2024/02/16 10:28:13;;;;;;;503.95;61.20;;;12.40;96.90;;;;;;5029907;28;19923;-50
2024/02/16 10:30:43;;;;;;;184.02;24.70;;;12.50;96.70;;;;;;5004143;28;20038;-51
2024/02/16 10:33:09;;;;;;;156.93;22.05;;;12.50;96.70;;;;;;5030129;28;20545;-51
2024/02/16 10:35:35;;;;;;;212.20;27.70;;;12.50;96.70;;;;;;5022156;28;20089;-50
2024/02/16 10:38:11;;;;;;;189.90;23.95;;;12.60;96.80;;;;;;5042402;28;20021;-50
2024/02/16 10:40:40;;;;;;;153.27;22.55;;;12.60;96.80;;;;;;5040598;28;20068;-50
2024/02/16 10:43:07;;;;;;;127.22;18.90;;;12.60;96.80;;;;;;5008453;28;20050;-50
2024/02/16 10:45:34;;;;;;;140.63;19.83;;;12.60;96.90;;;;;;5032342;28;20064;-51
2024/02/16 10:48:00;;;;;;;154.15;21.63;;;12.70;97.00;;;;;;5025152;28;20033;-50
2024/02/16 10:50:35;;;;;;;153.32;21.35;;;12.70;97.00;;;;;;5021251;28;20097;-50
2024/02/16 10:53:08;;;;;;;113.53;17.40;;;12.80;96.90;;;;;;5010373;28;20048;-51
2024/02/16 10:55:37;;;;;;;138.75;17.33;;;12.80;96.90;;;;;;5028445;28;20038;-50
2024/02/16 10:58:11;;;;;;;123.05;17.38;;;12.80;96.60;;;;;;5027525;28;20460;-50
2024/02/16 11:00:57;;;;;;;260.20;28.95;;;12.90;96.50;;;;;;5044646;28;20038;-50
2024/02/16 11:03:24;;;;;;;142.30;20.85;;;12.90;96.50;;;;;;5043221;28;20133;-51
2024/02/16 11:06:19;;;;;;;178.30;21.02;;;12.90;96.70;;;;;;5010619;28;20061;-50
2024/02/16 11:08:48;;;;;;;88.78;13.07;;;13.00;96.60;;;;;;5043709;28;20468;-50
2024/02/16 11:11:14;;;;;;;106.22;15.88;;;13.00;96.50;;;;;;5029064;28;20021;-50
2024/02/16 11:13:42;;;;;;;80.07;12.98;;;13.10;96.10;;;;;;5028073;28;20025;-50
2024/02/16 11:16:08;;;;;;;96.35;13.48;;;13.10;96.10;;;;;;5029677;28;20387;-50
2024/02/16 11:18:39;;;;;;;125.13;17.48;;;13.10;95.80;;;;;;5046866;28;20021;-50
2024/02/16 11:21:06;;;;;;;108.72;15.23;;;13.20;95.90;;;;;;5046057;28;20035;-50
2024/02/16 11:23:34;;;;;;;190.05;23.05;;;13.20;96.40;;;;;;5045367;28;20033;-51
2024/02/16 11:26:03;;;;;;;148.05;18.92;;;13.30;96.10;;;;;;5040001;28;20025;-50
2024/02/16 11:28:31;;;;;;;89.13;13.20;;;13.30;96.10;;;;;;5038898;28;20038;-50
2024/02/16 11:30:57;;;;;;;58.80;11.27;;;13.30;95.80;;;;;;5034788;28;20037;-50
2024/02/16 11:33:22;;;;;;;60.72;9.70;;;13.30;95.70;;;;;;5039484;28;20026;-50
2024/02/16 11:36:00;;;;;;;55.63;10.50;;;13.40;95.70;;;;;;5044784;28;20558;-50
2024/02/16 11:38:26;;;;;;;80.75;12.27;;;13.40;95.40;;;;;;5045186;28;20022;-50
2024/02/16 11:41:02;;;;;;;84.05;11.00;;;13.50;95.30;;;;;;5019137;28;20032;-50
2024/02/16 11:43:27;;;;;;;61.65;9.98;;;13.50;95.20;;;;;;5027506;28;20409;-50
2024/02/16 11:45:53;;;;;;;64.40;11.60;;;13.60;95.20;;;;;;5043037;28;20100;-50
2024/02/16 11:48:21;;;;;;;58.47;9.88;;;13.60;95.00;;;;;;5042973;28;20057;-50
2024/02/16 11:50:50;;;;;;;55.38;8.98;;;13.60;95.00;;;;;;5028980;28;20030;-51
2024/02/16 11:53:23;;;;;;;47.42;9.27;;;13.70;94.90;;;;;;5016741;28;20395;-50
2024/02/16 11:55:49;;;;;;;41.13;8.73;;;13.70;94.80;;;;;;5028809;28;20495;-50
2024/02/16 11:58:33;;;;;;;48.40;8.60;;;13.80;94.80;;;;;;5024888;28;20033;-50
2024/02/16 12:01:05;;;;;;;71.22;10.93;;;13.80;94.70;;;;;;5029000;28;20144;-50
2024/02/16 12:03:36;;;;;;;60.58;9.32;;;13.80;94.60;;;;;;5044120;28;20025;-50
2024/02/16 12:06:02;;;;;;;98.03;13.75;;;13.90;94.70;;;;;;5036210;28;20040;-50
2024/02/16 12:08:34;;;;;;;56.75;9.40;;;13.90;94.50;;;;;;5035544;28;20053;-50
2024/02/16 12:11:00;;;;;;;52.70;9.18;;;14.00;94.50;;;;;;5043376;28;20084;-50
2024/02/16 12:13:26;;;;;;;68.90;11.13;;;14.00;94.60;;;;;;5035095;28;20025;-50
2024/02/16 12:15:51;;;;;;;93.10;12.75;;;14.00;94.50;;;;;;5006383;28;20030;-50
2024/02/16 12:18:27;;;;;;;46.95;9.18;;;14.00;94.50;;;;;;5023287;28;20030;-50
2024/02/16 12:21:03;;;;;;;40.08;6.32;;;14.00;94.10;;;;;;5025466;28;20396;-50
2024/02/16 12:23:30;;;;;;;44.50;7.75;;;14.10;94.20;;;;;;5022753;28;20034;-50
2024/02/16 12:25:56;;;;;;;43.85;7.28;;;14.10;94.30;;;;;;5022531;28;20085;-50
2024/02/16 12:28:27;;;;;;;54.75;7.60;;;14.10;94.40;;;;;;5022749;28;20262;-50
2024/02/16 12:30:52;;;;;;;57.10;9.45;;;14.20;94.50;;;;;;5026462;28;20484;-50
2024/02/16 12:33:18;;;;;;;56.83;9.18;;;14.20;94.30;;;;;;5031481;28;20044;-51